MFX89 UZTT-UZNU
Flight info
| Callsign | MFX89 |
|---|---|
| Flight time | N/A |
| Altitude | 38000 |
| Route | K0795F380 OGRIP1A OGRIP P180 LAPZE DCT DIKNA DIKNA1A |
| Aircraft | A20N/M-SDE2E3FGHIRWXY/LB1 |
Departure
| Time | 2026-04-14 12:43 |
|---|---|
| Airport | Tashkent International Airport (UZTT) |
Arrival
| Time | N/A |
|---|---|
| Airport | UZNU |
| Time | Latitude | Longitude | Altitude | Speed | Heading |
|---|---|---|---|---|---|
| 2026-04-14 12:28 | 41.26303 | 69.27219 | 1407 ft | 0 kts | 351° |
| 2026-04-14 12:33 | 41.26325 | 69.27215 | 1412 ft | 6 kts | 351° |
| 2026-04-14 12:33 | 41.26340 | 69.27210 | 1410 ft | 0 kts | 342° |
| 2026-04-14 12:33 | 41.26340 | 69.27209 | 1410 ft | 0 kts | 329° |
| 2026-04-14 12:33 | 41.26340 | 69.27204 | 1411 ft | 1 kts | 292° |
| 2026-04-14 12:34 | 41.26334 | 69.27184 | 1409 ft | 6 kts | 254° |
| 2026-04-14 12:34 | 41.26329 | 69.27147 | 1407 ft | 2 kts | 261° |
| 2026-04-14 12:34 | 41.26323 | 69.27098 | 1413 ft | 9 kts | 262° |
| 2026-04-14 12:34 | 41.26307 | 69.27005 | 1413 ft | 10 kts | 234° |
| 2026-04-14 12:35 | 41.26257 | 69.27012 | 1409 ft | 9 kts | 146° |
| 2026-04-14 12:35 | 41.26242 | 69.27031 | 1408 ft | 4 kts | 140° |
| 2026-04-14 12:35 | 41.26232 | 69.27042 | 1407 ft | 0 kts | 139° |
| 2026-04-14 12:37 | 41.26210 | 69.27068 | 1408 ft | 7 kts | 138° |
| 2026-04-14 12:37 | 41.26161 | 69.27126 | 1413 ft | 9 kts | 140° |
| 2026-04-14 12:37 | 41.26129 | 69.27127 | 1415 ft | 5 kts | 220° |
| 2026-04-14 12:37 | 41.26105 | 69.27067 | 1413 ft | 10 kts | 246° |
| 2026-04-14 12:38 | 41.26032 | 69.26837 | 1412 ft | 15 kts | 247° |
| 2026-04-14 12:38 | 41.25991 | 69.26711 | 1414 ft | 15 kts | 246° |
| 2026-04-14 12:38 | 41.25949 | 69.26588 | 1411 ft | 15 kts | 246° |
| 2026-04-14 12:39 | 41.25895 | 69.26469 | 1409 ft | 15 kts | 223° |
| 2026-04-14 12:39 | 41.25805 | 69.26369 | 1409 ft | 18 kts | 219° |
| 2026-04-14 12:39 | 41.25728 | 69.26236 | 1412 ft | 19 kts | 244° |
| 2026-04-14 12:39 | 41.25668 | 69.26063 | 1414 ft | 22 kts | 245° |
| 2026-04-14 12:40 | 41.25601 | 69.25876 | 1411 ft | 20 kts | 244° |
| 2026-04-14 12:40 | 41.25564 | 69.25802 | 1409 ft | 2 kts | 212° |
| 2026-04-14 12:40 | 41.25534 | 69.25798 | 1413 ft | 8 kts | 176° |
| 2026-04-14 12:40 | 41.25493 | 69.25805 | 1413 ft | 0 kts | 172° |
| 2026-04-14 12:41 | 41.25486 | 69.25806 | 1412 ft | 4 kts | 172° |
| 2026-04-14 12:41 | 41.25443 | 69.25815 | 1410 ft | 9 kts | 170° |
| 2026-04-14 12:41 | 41.25410 | 69.25900 | 1411 ft | 15 kts | 86° |
| 2026-04-14 12:41 | 41.25418 | 69.25974 | 1409 ft | 0 kts | 82° |
| 2026-04-14 12:42 | 41.25422 | 69.26008 | 1411 ft | 0 kts | 82° |
| 2026-04-14 12:42 | 41.25429 | 69.26076 | 1411 ft | 36 kts | 81° |
| 2026-04-14 12:42 | 41.25507 | 69.26820 | 1421 ft | 122 kts | 83° |
| 2026-04-14 12:42 | 41.25644 | 69.28087 | 1802 ft | 151 kts | 84° |
| 2026-04-14 12:43 | 41.25818 | 69.29630 | 2212 ft | 181 kts | 79° |
| 2026-04-14 12:43 | 41.26039 | 69.31302 | 3031 ft | 186 kts | 79° |
| 2026-04-14 12:43 | 41.26045 | 69.33051 | 3738 ft | 200 kts | 105° |
| 2026-04-14 12:43 | 41.25253 | 69.34649 | 4260 ft | 220 kts | 140° |
| 2026-04-14 12:44 | 41.23790 | 69.35461 | 5113 ft | 223 kts | 178° |
| 2026-04-14 12:44 | 41.23554 | 69.35468 | 5426 ft | 218 kts | 181° |
| 2026-04-14 12:45 | 41.22573 | 69.35311 | 6174 ft | 236 kts | 195° |
| 2026-04-14 12:45 | 41.21102 | 69.34236 | 6697 ft | 252 kts | 224° |
| 2026-04-14 12:45 | 41.20177 | 69.32251 | 7156 ft | 255 kts | 252° |
| 2026-04-14 12:46 | 41.19923 | 69.29932 | 7033 ft | 258 kts | 266° |
| 2026-04-14 12:46 | 41.19771 | 69.27586 | 7002 ft | 254 kts | 260° |
| 2026-04-14 12:46 | 41.19371 | 69.25284 | 7009 ft | 266 kts | 251° |
| 2026-04-14 12:46 | 41.18680 | 69.22922 | 7000 ft | 277 kts | 245° |
| 2026-04-14 12:47 | 41.18158 | 69.20475 | 6999 ft | 279 kts | 266° |
| 2026-04-14 12:47 | 41.18506 | 69.17955 | 7000 ft | 281 kts | 293° |
| 2026-04-14 12:47 | 41.19629 | 69.15828 | 7001 ft | 283 kts | 311° |
| 2026-04-14 12:47 | 41.20951 | 69.13889 | 7001 ft | 283 kts | 309° |
| 2026-04-14 12:48 | 41.22165 | 69.11836 | 7001 ft | 282 kts | 304° |
| 2026-04-14 12:48 | 41.23227 | 69.09655 | 7000 ft | 282 kts | 300° |
| 2026-04-14 12:48 | 41.24155 | 69.07373 | 6994 ft | 280 kts | 289° |
| 2026-04-14 12:48 | 41.24334 | 69.04842 | 6997 ft | 277 kts | 257° |
| 2026-04-14 12:49 | 41.23600 | 69.02500 | 7000 ft | 276 kts | 239° |
| 2026-04-14 12:49 | 41.22588 | 69.00334 | 6998 ft | 275 kts | 236° |
| 2026-04-14 12:49 | 41.21523 | 68.98222 | 6996 ft | 275 kts | 235° |
| 2026-04-14 12:49 | 41.20448 | 68.96126 | 6988 ft | 275 kts | 235° |
| 2026-04-14 12:50 | 41.19367 | 68.94025 | 6994 ft | 276 kts | 235° |
| 2026-04-14 12:50 | 41.17203 | 68.89826 | 7025 ft | 276 kts | 235° |
| 2026-04-14 12:50 | 41.14628 | 68.84842 | 9228 ft | 272 kts | 236° |
| 2026-04-14 12:51 | 41.12726 | 68.81171 | 11193 ft | 296 kts | 236° |
| 2026-04-14 12:51 | 41.11517 | 68.78832 | 11839 ft | 321 kts | 236° |
| 2026-04-14 12:51 | 41.09754 | 68.74521 | 13366 ft | 339 kts | 247° |
| 2026-04-14 12:51 | 41.06842 | 68.63755 | 17026 ft | 359 kts | 250° |
| 2026-04-14 12:52 | 41.05726 | 68.59677 | 18294 ft | 367 kts | 249° |
| 2026-04-14 12:52 | 41.04838 | 68.56476 | 19176 ft | 371 kts | 249° |
| 2026-04-14 12:52 | 41.03939 | 68.53250 | 20074 ft | 375 kts | 249° |
| 2026-04-14 12:52 | 41.03033 | 68.50000 | 20993 ft | 378 kts | 249° |
| 2026-04-14 12:53 | 41.02114 | 68.46699 | 21835 ft | 384 kts | 249° |
| 2026-04-14 12:53 | 41.01185 | 68.43364 | 22664 ft | 389 kts | 249° |
| 2026-04-14 12:53 | 41.00320 | 68.40254 | 23445 ft | 393 kts | 249° |
| 2026-04-14 12:53 | 40.99371 | 68.36835 | 24170 ft | 397 kts | 249° |
| 2026-04-14 12:54 | 40.98415 | 68.33391 | 24906 ft | 400 kts | 249° |
| 2026-04-14 12:54 | 40.97452 | 68.29917 | 25600 ft | 403 kts | 249° |
| 2026-04-14 12:54 | 40.96497 | 68.26465 | 26276 ft | 407 kts | 249° |
| 2026-04-14 12:54 | 40.95508 | 68.22888 | 26955 ft | 410 kts | 249° |
| 2026-04-14 12:55 | 40.94525 | 68.19330 | 27593 ft | 414 kts | 249° |
| 2026-04-14 12:55 | 40.93535 | 68.15740 | 28269 ft | 415 kts | 249° |
| 2026-04-14 12:55 | 40.92641 | 68.12101 | 28851 ft | 419 kts | 256° |
| 2026-04-14 12:55 | 40.92282 | 68.08260 | 29406 ft | 425 kts | 268° |
| 2026-04-14 12:56 | 40.92388 | 68.05672 | 29761 ft | 428 kts | 275° |
| 2026-04-14 12:56 | 40.93378 | 68.00580 | 30440 ft | 435 kts | 286° |
| 2026-04-14 12:56 | 40.94329 | 67.96748 | 30917 ft | 439 kts | 285° |
| 2026-04-14 12:56 | 40.95277 | 67.92907 | 31459 ft | 440 kts | 285° |
| 2026-04-14 12:57 | 40.96219 | 67.89066 | 32094 ft | 438 kts | 285° |
| 2026-04-14 12:57 | 40.96840 | 67.86524 | 32524 ft | 437 kts | 285° |
| 2026-04-14 12:57 | 40.98083 | 67.81414 | 33379 ft | 435 kts | 285° |
| 2026-04-14 12:57 | 40.98694 | 67.78898 | 33790 ft | 434 kts | 285° |
| 2026-04-14 12:58 | 40.99625 | 67.75054 | 34359 ft | 432 kts | 285° |
| 2026-04-14 12:58 | 41.00528 | 67.71321 | 34926 ft | 429 kts | 285° |
| 2026-04-14 12:58 | 41.01434 | 67.67570 | 35482 ft | 426 kts | 285° |
| 2026-04-14 12:58 | 41.02333 | 67.63842 | 36019 ft | 424 kts | 285° |
| 2026-04-14 12:59 | 41.03226 | 67.60135 | 36541 ft | 422 kts | 285° |
| 2026-04-14 12:59 | 41.04117 | 67.56424 | 37055 ft | 420 kts | 285° |
| 2026-04-14 12:59 | 41.05000 | 67.52745 | 37561 ft | 418 kts | 285° |
| 2026-04-14 12:59 | 41.05880 | 67.49076 | 37827 ft | 417 kts | 285° |
| 2026-04-14 13:00 | 41.06754 | 67.45421 | 37895 ft | 415 kts | 285° |
| 2026-04-14 13:00 | 41.08492 | 67.38134 | 37897 ft | 415 kts | 285° |
| 2026-04-14 13:01 | 41.10226 | 67.30831 | 37893 ft | 415 kts | 284° |